createdAt,value
2023-04-22T00:00:24.696Z,100334.25
2023-04-22T00:03:05.342Z,100329.91
2023-04-22T00:05:52.784Z,100336.28
2023-04-22T00:08:33.057Z,100339.16
2023-04-22T00:11:19.732Z,100315.88
2023-04-22T00:14:06.576Z,100323.69
2023-04-22T00:16:46.963Z,100327.06
2023-04-22T00:19:34.910Z,100325.78
2023-04-22T00:22:14.771Z,100325.94
2023-04-22T00:25:01.591Z,100325.78
2023-04-22T00:27:48.625Z,100324.66
2023-04-22T00:30:35.658Z,100330.34
2023-04-22T00:33:15.708Z,100330.72
2023-04-22T00:36:02.536Z,100331.69
2023-04-22T00:38:42.658Z,100334.63
2023-04-22T00:41:29.539Z,100324.59
2023-04-22T00:44:19.644Z,100322.81
2023-04-22T00:47:06.705Z,100324.13
2023-04-22T00:49:53.645Z,100326.22
2023-04-22T00:52:40.548Z,100324.78
2023-04-22T00:55:20.794Z,100325.59
2023-04-22T00:58:09.590Z,100318.94
2023-04-22T01:00:49.762Z,100324.31
2023-04-22T01:03:37.870Z,100332.72
2023-04-22T01:06:24.582Z,100337.44
2023-04-22T01:09:04.982Z,100332.56
2023-04-22T01:11:51.585Z,100329.34
2023-04-22T01:14:32.803Z,100323.31
2023-04-22T01:17:20.557Z,100306.28
2023-04-22T01:20:01.707Z,100319.03
2023-04-22T01:22:53.540Z,100316.13
2023-04-22T01:25:34.181Z,100317.06
2023-04-22T01:28:20.514Z,100308.44
2023-04-22T01:31:07.594Z,100313.16
2023-04-22T01:33:48.485Z,100300.19
2023-04-22T01:36:35.513Z,100301.75
2023-04-22T01:39:15.657Z,100301.31
2023-04-22T01:42:03.518Z,100301.31
2023-04-22T01:44:43.564Z,100305.16
2023-04-22T01:47:30.502Z,100305.31
2023-04-22T01:50:17.499Z,100312.31
2023-04-22T01:52:57.876Z,100306.47
2023-04-22T01:55:44.517Z,100305.34
2023-04-22T01:58:31.524Z,100302.00
2023-04-22T02:01:11.665Z,100302.47
2023-04-22T02:03:58.477Z,100295.50
2023-04-22T02:06:38.588Z,100304.25
2023-04-22T02:09:25.513Z,100296.66
2023-04-22T02:12:05.636Z,100297.13
2023-04-22T02:14:53.452Z,100302.78
2023-04-22T02:17:40.459Z,100304.41
2023-04-22T02:20:27.409Z,100301.44
2023-04-22T02:23:14.798Z,100301.94
2023-04-22T02:26:02.518Z,100306.44
2023-04-22T02:28:42.959Z,100308.06
2023-04-22T02:31:29.457Z,100309.19
2023-04-22T02:34:09.501Z,100305.44
2023-04-22T02:36:56.477Z,100308.38
2023-04-22T02:39:36.739Z,100304.13
2023-04-22T02:42:23.444Z,100303.91
2023-04-22T02:45:03.534Z,100298.22
2023-04-22T02:47:51.690Z,100303.81
2023-04-22T02:50:38.391Z,100299.09
2023-04-22T02:53:18.937Z,100306.91
2023-04-22T02:56:05.402Z,100305.28
2023-04-22T02:58:48.088Z,100322.91
2023-04-22T03:01:35.404Z,100310.09
2023-04-22T03:04:22.134Z,100310.19
2023-04-22T03:07:09.431Z,100313.44
2023-04-22T03:09:56.472Z,100313.00
2023-04-22T03:12:36.362Z,100316.50
2023-04-22T03:15:19.604Z,100315.28
2023-04-22T03:18:08.519Z,100310.31
2023-04-22T03:20:56.490Z,100314.19
2023-04-22T03:23:36.411Z,100315.91
2023-04-22T03:26:24.533Z,100315.09
2023-04-22T03:29:05.441Z,100318.22
2023-04-22T03:31:45.866Z,100330.94
2023-04-22T03:34:34.600Z,100321.41
2023-04-22T03:37:23.498Z,100331.22
2023-04-22T03:40:03.327Z,100344.16
2023-04-22T03:42:58.318Z,100345.59
2023-04-22T03:45:45.393Z,100350.00
2023-04-22T03:48:41.392Z,100345.91
2023-04-22T03:51:38.316Z,100348.06
2023-04-22T03:54:30.322Z,100357.13
2023-04-22T03:57:11.744Z,100361.97
2023-04-22T03:59:58.302Z,100366.81
2023-04-22T04:02:47.806Z,100384.28
2023-04-22T04:05:38.446Z,100395.81
2023-04-22T04:08:18.710Z,100390.69
2023-04-22T04:11:05.328Z,100401.13
2023-04-22T04:13:45.779Z,100408.38
2023-04-22T04:16:40.256Z,100410.84
2023-04-22T04:19:34.369Z,100404.41
2023-04-22T04:22:21.290Z,100403.31
2023-04-22T04:25:13.281Z,100403.59
2023-04-22T04:27:54.388Z,100408.69
2023-04-22T04:30:41.227Z,100406.38
2023-04-22T04:33:28.265Z,100398.75
2023-04-22T04:36:10.725Z,100412.25
2023-04-22T04:38:57.275Z,100413.16
2023-04-22T04:41:45.231Z,100415.59
2023-04-22T04:44:33.248Z,100424.13
2023-04-22T04:47:15.119Z,100428.13
2023-04-22T04:50:05.190Z,100431.16
2023-04-22T04:52:53.223Z,100439.34
2023-04-22T04:55:40.456Z,100449.06
2023-04-22T04:58:34.244Z,100462.19
2023-04-22T05:01:33.317Z,100456.44
2023-04-22T05:04:15.805Z,100465.03
2023-04-22T05:07:03.215Z,100463.34
2023-04-22T05:09:45.649Z,100466.53
2023-04-22T05:12:32.177Z,100463.31
2023-04-22T05:15:15.382Z,100461.19
2023-04-22T05:18:02.319Z,100465.91
2023-04-22T05:20:42.641Z,100466.63
2023-04-22T05:23:32.246Z,100469.25
2023-04-22T05:26:13.721Z,100476.19
2023-04-22T05:29:02.186Z,100472.44
2023-04-22T05:31:49.257Z,100466.91
2023-04-22T05:34:29.360Z,100476.25
2023-04-22T05:37:17.226Z,100480.13
2023-04-22T05:39:58.264Z,100473.91
2023-04-22T05:42:45.207Z,100476.44
2023-04-22T05:45:25.239Z,100483.41
2023-04-22T05:48:12.245Z,100491.13
2023-04-22T05:51:03.308Z,100487.56
2023-04-22T05:53:50.193Z,100503.31
2023-04-22T05:56:30.244Z,100498.53
2023-04-22T05:59:18.834Z,100506.72
2023-04-22T06:01:59.341Z,100513.81
2023-04-22T06:04:46.515Z,100508.44
2023-04-22T06:07:35.140Z,100523.31
2023-04-22T06:10:22.284Z,100514.88
2023-04-22T06:13:03.203Z,100518.38
2023-04-22T06:15:43.593Z,100513.16
2023-04-22T06:18:30.192Z,100517.81
2023-04-22T06:21:10.747Z,100524.41
2023-04-22T06:23:57.130Z,100532.31
2023-04-22T06:26:37.961Z,100536.94
2023-04-22T06:29:25.187Z,100525.81
2023-04-22T06:32:12.130Z,100527.88
2023-04-22T06:34:59.255Z,100529.00
2023-04-22T06:37:39.921Z,100537.53
2023-04-22T06:40:28.112Z,100539.59
2023-04-22T06:43:28.205Z,100544.16
2023-04-22T06:46:11.187Z,100545.81
2023-04-22T06:49:26.562Z,100564.03
2023-04-22T06:52:13.097Z,100549.41
2023-04-22T06:55:00.152Z,100546.06
2023-04-22T06:57:40.222Z,100557.03
2023-04-22T07:00:27.127Z,100567.44
2023-04-22T07:03:14.154Z,100559.94
2023-04-22T07:06:12.119Z,100555.81
2023-04-22T07:08:52.219Z,100557.22
2023-04-22T07:11:39.127Z,100557.53
2023-04-22T07:14:24.193Z,100546.75
2023-04-22T07:17:11.113Z,100554.63
2023-04-22T07:19:51.317Z,100566.22
2023-04-22T07:22:38.071Z,100572.56
2023-04-22T07:25:18.123Z,100577.59
2023-04-22T07:40:13.135Z,100573.78
2023-04-22T07:42:53.494Z,100570.84
2023-04-22T07:45:40.257Z,100577.56
2023-04-22T07:48:20.659Z,100573.06
2023-04-22T07:51:07.209Z,100578.50
2023-04-22T07:53:54.154Z,100594.19
2023-04-22T07:56:41.264Z,100595.38
2023-04-22T07:59:21.773Z,100592.56
2023-04-22T08:02:08.226Z,100591.25
2023-04-22T08:04:48.664Z,100589.53
2023-04-22T08:07:35.098Z,100589.69
2023-04-22T08:10:22.092Z,100594.81
2023-04-22T08:13:09.071Z,100589.56
2023-04-22T08:15:49.502Z,100588.06
2023-04-22T08:18:36.023Z,100584.25
2023-04-22T08:21:16.463Z,100593.50
2023-04-22T08:24:03.108Z,100578.66
2023-04-22T08:26:43.458Z,100579.31
2023-04-22T08:29:30.058Z,100579.19
2023-04-22T08:32:19.647Z,100589.16
2023-04-22T08:35:04.327Z,100582.22
2023-04-22T08:37:59.114Z,100590.66
2023-04-22T08:40:49.121Z,100583.97
2023-04-22T08:43:36.146Z,100584.06
2023-04-22T08:46:20.197Z,100582.69
2023-04-22T08:49:10.014Z,100574.00
2023-04-22T08:51:50.832Z,100575.16
2023-04-22T08:54:39.044Z,100576.22
2023-04-22T08:57:20.413Z,100578.34
2023-04-22T09:00:07.015Z,100585.22
2023-04-22T09:02:48.425Z,100572.75
2023-04-22T09:05:37.082Z,100576.94
2023-04-22T09:08:17.804Z,100568.91
2023-04-22T09:11:05.007Z,100582.75
2023-04-22T09:13:45.618Z,100584.22
2023-04-22T09:16:32.152Z,100587.75
2023-04-22T09:19:13.274Z,100589.63
2023-04-22T09:22:00.058Z,100590.41
2023-04-22T09:24:49.736Z,100575.81
2023-04-22T09:27:41.031Z,100571.91
2023-04-22T09:30:37.772Z,100568.75
2023-04-22T09:33:20.040Z,100580.91
2023-04-22T09:36:09.496Z,100589.91
2023-04-22T09:39:06.082Z,100585.09
2023-04-22T09:41:54.617Z,100593.94
2023-04-22T09:44:33.960Z,100589.22
2023-04-22T09:47:21.034Z,100593.78
2023-04-22T09:50:04.321Z,100589.34
2023-04-22T09:52:51.005Z,100586.38
2023-04-22T09:55:34.763Z,100586.03
2023-04-22T09:58:28.101Z,100575.72
2023-04-22T10:01:08.507Z,100590.78
2023-04-22T10:03:55.041Z,100584.94
2023-04-22T10:06:35.950Z,100578.78
2023-04-22T10:09:22.979Z,100581.25
2023-04-22T10:12:10.982Z,100578.91
2023-04-22T10:14:57.922Z,100573.22
2023-04-22T10:17:39.708Z,100574.91
2023-04-22T10:20:31.931Z,100562.69
2023-04-22T10:23:15.612Z,100575.78
2023-04-22T10:26:03.969Z,100580.41
2023-04-22T10:28:44.631Z,100568.75
2023-04-22T10:31:35.108Z,100570.91
2023-04-22T10:34:22.107Z,100568.75
2023-04-22T10:37:19.038Z,100565.41
2023-04-22T10:40:23.011Z,100564.19
2023-04-22T10:43:10.930Z,100576.28
2023-04-22T10:45:51.364Z,100570.69
2023-04-22T10:48:56.870Z,100565.63
2023-04-22T10:51:53.925Z,100559.50
2023-04-22T10:54:37.171Z,100557.66
2023-04-22T10:57:33.917Z,100556.28
2023-04-22T11:00:23.906Z,100570.25
2023-04-22T11:03:13.311Z,100555.13
2023-04-22T11:06:20.880Z,100559.53
2023-04-22T11:09:17.425Z,100560.72
2023-04-22T11:12:50.035Z,100561.31
2023-04-22T11:15:30.084Z,100565.00
2023-04-22T11:18:19.900Z,100571.28
2023-04-22T11:21:07.873Z,100567.03
2023-04-22T11:23:53.062Z,100573.03
2023-04-22T11:26:47.842Z,100569.00
2023-04-22T11:29:28.260Z,100567.84
2023-04-22T11:32:16.873Z,100559.59
2023-04-22T11:34:58.083Z,100562.97
2023-04-22T11:37:44.986Z,100557.59
2023-04-22T11:40:47.644Z,100553.31
2023-04-22T11:43:28.255Z,100568.34
2023-04-22T11:46:14.936Z,100570.44
2023-04-22T11:49:01.853Z,100563.19
2023-04-22T11:51:48.865Z,100559.13
2023-04-22T11:54:34.261Z,100562.00
2023-04-22T11:57:23.812Z,100558.44
2023-04-22T12:00:05.353Z,100558.00
2023-04-22T12:02:51.894Z,100555.28
2023-04-22T12:05:43.797Z,100567.41
2023-04-22T12:08:26.915Z,100563.88
2023-04-22T12:11:16.895Z,100550.69
2023-04-22T12:13:59.914Z,100542.59
2023-04-22T12:16:47.996Z,100539.16
2023-04-22T12:19:40.139Z,100534.97
2023-04-22T12:22:28.159Z,100545.75
2023-04-22T12:25:14.762Z,100549.91
2023-04-22T12:27:56.191Z,100556.00
2023-04-22T12:30:42.826Z,100574.84
2023-04-22T12:33:23.210Z,100563.47
2023-04-22T12:36:09.883Z,100565.81
2023-04-22T12:39:03.821Z,100565.06
2023-04-22T12:41:44.303Z,100567.00
2023-04-22T12:44:30.789Z,100560.94
2023-04-22T12:47:11.244Z,100568.69
2023-04-22T12:49:57.863Z,100564.50
2023-04-22T12:52:38.359Z,100561.69
2023-04-22T12:55:24.988Z,100567.19
2023-04-22T12:58:05.663Z,100558.34
2023-04-22T13:00:52.952Z,100570.25
2023-04-22T13:03:39.948Z,100566.81
2023-04-22T13:06:26.732Z,100570.03
2023-04-22T13:09:13.853Z,100569.50
2023-04-22T13:11:56.101Z,100567.72
2023-04-22T13:14:36.383Z,100562.69
2023-04-22T13:17:22.753Z,100571.69
2023-04-22T13:20:06.467Z,100560.72
2023-04-22T13:22:54.773Z,100568.78
2023-04-22T13:25:35.170Z,100576.72
2023-04-22T13:28:21.820Z,100575.56
2023-04-22T13:31:02.503Z,100572.06
2023-04-22T13:33:50.772Z,100570.88
2023-04-22T13:36:31.347Z,100572.44
2023-04-22T13:39:18.710Z,100570.25
2023-04-22T13:42:05.745Z,100570.88
2023-04-22T13:44:45.962Z,100583.13
2023-04-22T13:47:32.710Z,100586.75
2023-04-22T13:50:20.712Z,100576.44
2023-04-22T13:53:01.343Z,100577.22
2023-04-22T13:55:47.708Z,100577.84
2023-04-22T13:58:28.018Z,100587.59
2023-04-22T14:01:15.058Z,100582.38
2023-04-22T14:03:55.229Z,100584.44
2023-04-22T14:06:41.689Z,100584.47
2023-04-22T14:09:28.674Z,100591.38
2023-04-22T14:12:15.624Z,100590.22
2023-04-22T14:15:02.710Z,100591.69
2023-04-22T14:17:42.897Z,100596.88
2023-04-22T14:20:31.689Z,100584.72
2023-04-22T14:23:11.879Z,100595.31
2023-04-22T14:25:58.674Z,100598.88
2023-04-22T14:28:45.650Z,100604.13
2023-04-22T14:31:32.669Z,100600.75
2023-04-22T14:34:12.742Z,100610.47
2023-04-22T14:36:59.639Z,100624.28
2023-04-22T14:39:39.952Z,100617.88
2023-04-22T14:42:26.625Z,100622.25
2023-04-22T14:45:06.739Z,100627.88
2023-04-22T14:47:53.959Z,100632.13
2023-04-22T14:50:40.643Z,100621.19
2023-04-22T14:53:21.099Z,100629.81
2023-04-22T14:56:07.616Z,100629.63
2023-04-22T14:58:54.604Z,100620.84
2023-04-22T15:01:42.599Z,100637.81
2023-04-22T15:04:30.663Z,100636.03
2023-04-22T15:07:17.602Z,100637.22
2023-04-22T15:10:04.804Z,100643.53
2023-04-22T15:12:44.636Z,100641.78
2023-04-22T15:15:25.013Z,100641.59
2023-04-22T15:18:12.616Z,100632.84
2023-04-22T15:20:52.961Z,100643.72
2023-04-22T15:23:39.580Z,100637.38
2023-04-22T15:26:20.069Z,100645.84
2023-04-22T15:29:06.593Z,100633.13
2023-04-22T15:31:47.341Z,100629.25
2023-04-22T15:34:34.607Z,100644.84
2023-04-22T15:37:16.093Z,100630.88
2023-04-22T15:40:02.626Z,100635.09
2023-04-22T15:42:56.543Z,100640.63
2023-04-22T15:45:43.577Z,100628.75
2023-04-22T15:48:30.540Z,100633.66
2023-04-22T15:51:11.658Z,100642.56
2023-04-22T15:53:59.559Z,100639.66
2023-04-22T15:56:39.923Z,100643.06
2023-04-22T15:59:26.572Z,100646.34
2023-04-22T16:02:08.771Z,100645.03
2023-04-22T16:04:55.531Z,100645.84
2023-04-22T16:07:36.013Z,100644.22
2023-04-22T16:10:23.532Z,100654.59
2023-04-22T16:13:03.919Z,100643.25
2023-04-22T16:15:50.532Z,100652.97
2023-04-22T16:18:37.530Z,100649.38
2023-04-22T16:21:17.610Z,100655.56
2023-04-22T16:24:05.540Z,100662.03
2023-04-22T16:26:52.540Z,100661.88
2023-04-22T16:29:39.679Z,100658.28
2023-04-22T16:32:19.855Z,100661.06
2023-04-22T16:35:06.464Z,100663.16
2023-04-22T16:37:46.677Z,100665.38
2023-04-22T16:40:33.534Z,100661.56
2023-04-22T16:43:13.601Z,100661.56
2023-04-22T16:46:00.513Z,100665.22
2023-04-22T16:48:40.673Z,100669.69
2023-04-22T16:51:27.448Z,100677.97
2023-04-22T16:54:07.952Z,100675.69
2023-04-22T16:56:54.488Z,100680.63
2023-04-22T16:59:34.610Z,100680.00
2023-04-22T17:02:21.651Z,100680.69
2023-04-22T17:05:02.634Z,100686.66
2023-04-22T17:07:49.438Z,100683.34
2023-04-22T17:10:29.676Z,100684.00
2023-04-22T17:13:16.402Z,100691.81
2023-04-22T17:15:56.595Z,100690.56
2023-04-22T17:18:44.455Z,100696.19
2023-04-22T17:21:31.447Z,100694.75
2023-04-22T17:24:19.492Z,100691.09
2023-04-22T17:27:01.716Z,100705.13
2023-04-22T17:29:48.429Z,100702.75
2023-04-22T17:32:28.648Z,100702.94
2023-04-22T17:35:16.415Z,100695.50
2023-04-22T17:37:57.911Z,100706.69
2023-04-22T17:40:45.429Z,100706.06
2023-04-22T17:43:26.194Z,100716.91
2023-04-22T17:46:13.461Z,100723.50
2023-04-22T17:48:53.488Z,100720.63
2023-04-22T17:51:40.411Z,100728.41
2023-04-22T17:54:27.451Z,100729.06
2023-04-22T17:57:07.780Z,100732.03
2023-04-22T17:59:54.402Z,100733.66
2023-04-22T18:02:34.983Z,100740.31
2023-04-22T18:05:21.411Z,100739.31
2023-04-22T18:08:02.952Z,100740.56
2023-04-22T18:10:49.404Z,100739.25
2023-04-22T18:13:29.703Z,100741.38
2023-04-22T18:16:16.464Z,100743.94
2023-04-22T18:18:59.471Z,100748.13
2023-04-22T18:21:59.642Z,100743.75
2023-04-22T18:24:42.791Z,100744.34
2023-04-22T18:27:29.443Z,100751.19
2023-04-22T18:30:10.089Z,100741.19
2023-04-22T18:32:58.570Z,100748.19
2023-04-22T18:35:38.881Z,100755.69
2023-04-22T18:38:25.345Z,100753.28
2023-04-22T18:41:13.640Z,100755.69
2023-04-22T18:43:55.296Z,100750.69
2023-04-22T18:46:42.339Z,100757.06
2023-04-22T18:49:22.449Z,100757.75
2023-04-22T18:52:09.298Z,100749.72
2023-04-22T18:54:49.957Z,100756.50
2023-04-22T18:57:36.307Z,100758.03
2023-04-22T19:00:17.931Z,100758.03
2023-04-22T19:03:04.458Z,100757.44
2023-04-22T19:05:44.552Z,100753.06
2023-04-22T19:08:32.325Z,100755.84
2023-04-22T19:11:12.486Z,100749.63
2023-04-22T19:13:59.326Z,100747.06
2023-04-22T19:16:46.277Z,100746.47
2023-04-22T19:19:33.303Z,100748.22
2023-04-22T19:22:20.275Z,100749.00
2023-04-22T19:25:07.289Z,100747.25
2023-04-22T19:27:47.487Z,100747.91
2023-04-22T19:41:27.613Z,100740.31
2023-04-22T19:44:14.588Z,100752.47
2023-04-22T19:46:54.688Z,100745.88
2023-04-22T19:49:41.988Z,100747.91
2023-04-22T19:52:21.775Z,100748.84
2023-04-22T19:55:16.569Z,100737.50
2023-04-22T19:57:58.054Z,100731.31
2023-04-22T20:00:39.575Z,100738.31
2023-04-22T20:03:20.457Z,100747.19
2023-04-22T20:06:08.544Z,100745.75
2023-04-22T20:08:52.203Z,100756.28
2023-04-22T20:11:38.580Z,100754.34
2023-04-22T20:14:20.023Z,100756.06
2023-04-22T20:17:06.608Z,100750.34
2023-04-22T20:19:47.073Z,100753.94
2023-04-22T20:22:37.536Z,100747.00
2023-04-22T20:25:18.090Z,100749.66
2023-04-22T20:28:05.503Z,100756.66
2023-04-22T20:30:53.657Z,100756.59
2023-04-22T20:33:33.634Z,100755.53
2023-04-22T20:36:23.494Z,100754.94
2023-04-22T20:39:12.498Z,100748.69
2023-04-22T20:41:56.295Z,100753.97
2023-04-22T20:44:43.510Z,100750.63
2023-04-22T20:47:23.972Z,100755.41
2023-04-22T20:50:10.528Z,100753.78
2023-04-22T20:52:58.484Z,100760.19
2023-04-22T20:55:38.727Z,100757.84
2023-04-22T20:58:25.479Z,100757.16
2023-04-22T21:01:05.834Z,100761.31
2023-04-22T21:03:58.644Z,100760.28
2023-04-22T21:06:46.501Z,100759.56
2023-04-22T21:09:33.723Z,100750.50
2023-04-22T21:12:14.476Z,100755.47
2023-04-22T21:15:01.490Z,100755.69
2023-04-22T21:17:44.658Z,100757.72
2023-04-22T21:20:33.453Z,100755.81
2023-04-22T21:23:14.604Z,100761.50
2023-04-22T21:26:02.498Z,100761.59
2023-04-22T21:28:51.446Z,100754.13
2023-04-22T21:31:38.546Z,100755.22
2023-04-22T21:34:18.589Z,100753.41
2023-04-22T21:37:05.415Z,100757.84
2023-04-22T21:39:53.443Z,100759.38
2023-04-22T21:42:40.445Z,100759.06
2023-04-22T21:45:20.524Z,100757.84
2023-04-22T21:48:07.412Z,100761.53
2023-04-22T21:50:54.481Z,100757.06
2023-04-22T21:53:41.446Z,100758.19
2023-04-22T21:56:28.411Z,100763.97
2023-04-22T21:59:08.791Z,100754.53
2023-04-22T22:01:55.526Z,100756.47
2023-04-22T22:04:36.000Z,100755.84
2023-04-22T22:07:24.448Z,100757.19
2023-04-22T22:10:16.448Z,100756.31
2023-04-22T22:13:04.441Z,100752.56
2023-04-22T22:15:44.877Z,100759.84
2023-04-22T22:18:31.408Z,100753.25
2023-04-22T22:21:18.389Z,100747.34
2023-04-22T22:24:05.397Z,100748.97
2023-04-22T22:26:52.480Z,100750.56
2023-04-22T22:29:32.401Z,100746.31
2023-04-22T22:32:13.125Z,100745.13
2023-04-22T22:35:00.354Z,100750.41
2023-04-22T22:37:41.198Z,100750.19
2023-04-22T22:40:28.352Z,100751.81
2023-04-22T22:43:15.396Z,100745.59
2023-04-22T22:46:02.355Z,100737.56
2023-04-22T22:48:49.336Z,100745.50
2023-04-22T22:51:29.983Z,100741.25
2023-04-22T22:54:16.399Z,100734.84
2023-04-22T22:56:59.279Z,100737.38
2023-04-22T22:59:47.329Z,100737.69
2023-04-22T23:02:34.773Z,100731.16
2023-04-22T23:05:21.833Z,100721.38
2023-04-22T23:08:01.418Z,100722.19
2023-04-22T23:10:48.278Z,100728.38
2023-04-22T23:13:28.452Z,100719.38
2023-04-22T23:16:15.360Z,100719.25
2023-04-22T23:18:56.621Z,100720.75
2023-04-22T23:21:45.338Z,100727.75
2023-04-22T23:24:32.295Z,100721.44
2023-04-22T23:27:13.625Z,100720.59
2023-04-22T23:30:00.300Z,100721.50
2023-04-22T23:32:49.383Z,100711.25
2023-04-22T23:35:29.526Z,100712.53
2023-04-22T23:38:18.329Z,100721.44
2023-04-22T23:40:58.411Z,100708.53
2023-04-22T23:43:45.208Z,100707.63
2023-04-22T23:46:25.421Z,100704.59
2023-04-22T23:49:12.246Z,100709.50
2023-04-22T23:51:52.362Z,100709.50
2023-04-22T23:54:39.302Z,100707.03
2023-04-22T23:57:19.378Z,100712.25
